x

Ilm2 - 5 Miles Se Of Wrightsville Beach, Nc (41038) Weather Station

11:08pm - Wed 16th Aug 2017 All times are EDT. -4 hours from GMT.

  • Wind
    4mph, 9mph gusts
  • Sea Temp 83°f
  • Air Temp 82°f
  • Sea Pressure 1016.9mb
  • Ilm2 - 5 Miles Se Of Wrightsville Beach, Nc
  • Ilm2 - 5 Miles Se Of Wrightsville Beach, Nc

More Historic Weather Station data

Upgrade to MSW Pro to gain access to the past 30 days of data for over 8000 Wavebouys and Weather Stations around the globe.

Join

Comparision Forecast

View Surf forecast
   
Wed 08/16 11:08pm 4 9 mph 1016.9mb 83f 82f
10:08pm 7 11 mph 1016.8mb 83f 81f
9:08pm 7 11 mph 1016.2mb 84f 82f
8:08pm 11 13 mph 1015.7mb 84f 83f
7:08pm 7 13 mph 1015mb 84f 83f
6:08pm 7 11 mph 1015.1mb 84f 83f
5:08pm 9 11 mph 1015.1mb 84f 83f
4:08pm 7 11 mph 1015.3mb 84f 82f
3:08pm 9 13 mph 1015.2mb 85f 83f
2:08pm 9 13 mph 1015.5mb 85f 83f
1:08pm 9 9 mph 1015.6mb 84f 83f
12:08pm 4 9 mph 1016mb 83f 82f
11:08am 9 11 mph 1015.9mb 83f 81f
10:08am 11 16 mph 1015.6mb 83f 81f
9:08am 13 18 mph 1015.3mb 83f 80f
8:08am 11 16 mph 1014.7mb 83f 80f
7:08am 9 13 mph 1014mb 83f 80f
6:08am 9 16 mph 1013.2mb 83f 81f
5:08am 2 4 mph 1012.2mb 83f 81f
4:08am 4 7 mph 1012mb 83f 81f
3:08am 4 9 mph 1012.5mb 83f 81f
2:08am 9 16 mph 1013.1mb 83f 82f
1:08am 9 16 mph 1013.4mb 83f 83f
12:08am 7 11 mph 1012.2mb 83f 82f
Tue 08/15 11:08pm 9 13 mph 1012.3mb 83f 82f
10:08pm 9 11 mph 1011.9mb 83f 83f
9:08pm 13 18 mph 1012.2mb 83f 83f
8:08pm 11 20 mph 1011.1mb 83f 83f
7:08pm 11 20 mph 1010.2mb 83f 83f
6:08pm 11 18 mph 1010.5mb 84f 84f
5:08pm 11 18 mph 1010.6mb 84f 84f
4:08pm 11 18 mph 1010.6mb 85f 84f
3:08pm 11 18 mph 1010.9mb 85f 84f
2:08pm 11 16 mph 1011.4mb 84f 84f
1:08pm 11 16 mph 1012mb 83f 83f
12:08pm 11 13 mph 1012.4mb 84f 82f
11:08am 7 11 mph 1012.7mb 83f 83f
10:08am 4 9 mph 1012.8mb 82f 83f
9:08am 4 7 mph 1012.7mb 82f 83f
8:08am 7 9 mph 1012.7mb 82f 82f
7:08am 4 11 mph 1012.1mb 82f 82f
6:08am 9 13 mph 1011.8mb 82f 82f
5:08am 7 11 mph 1011.2mb 82f 82f
4:08am 9 11 mph 1011.5mb 82f 82f
3:08am 9 11 mph 1011.6mb 82f 82f
2:08am 7 11 mph 1012.1mb 82f 82f
1:08am 9 13 mph 1012.7mb 83f 82f
12:08am 9 16 mph 1013.1mb 83f 83f
Mon 08/14 11:08pm 9 11 mph 1013.6mb 83f 83f
10:08pm 9 16 mph 1013.3mb 83f 83f
9:08pm 11 16 mph 1012.8mb 83f 83f
7:08pm 9 13 mph 1012.7mb 84f 83f
3:08pm 11 18 mph 1013.5mb 84f 83f
1:08pm 9 16 mph 1014.2mb 83f 83f
12:08pm 9 11 mph 1014.7mb 83f 83f
11:08am 4 7 mph 1015mb 82f 83f
10:08am 4 7 mph 1014.9mb 82f 83f
8:08am 7 9 mph 1014.8mb 82f 82f
7:08am 7 9 mph 1014.5mb 82f 81f
6:08am 7 9 mph 1014.1mb 81f 81f
5:08am 7 11 mph 1013.7mb 81f 81f
3:08am 7 11 mph 1014mb 82f 82f
2:08am 7 11 mph 1014.3mb 82f 81f
1:08am 2 4 mph 1014.5mb 82f 81f
Sun 08/13 11:08pm 7 9 mph 1015.3mb 82f 82f
10:08pm 4 7 mph 1015.1mb 82f 82f
9:08pm 9 13 mph 1014.4mb 82f 80f
8:08pm 9 13 mph 1014.2mb 82f 82f
7:08pm 7 11 mph 1013.9mb 82f 82f
6:08pm 7 13 mph 1013.7mb 82f 82f
5:08pm 9 16 mph 1013.7mb 82f 82f
4:08pm 11 16 mph 1013.3mb 82f 82f
3:08pm 9 11 mph 1013.8mb 82f 81f
2:08pm 7 11 mph 1014.3mb 81f 79f
1:08pm 4 16 mph 1014.6mb 82f 81f
12:08pm 11 18 mph 1014.6mb 81f 81f
11:08am 11 18 mph 1014.9mb 82f 80f
10:08am 4 7 mph 1014.5mb 81f 83f
9:08am 4 7 mph 1014.5mb 81f 81f
8:08am 7 9 mph 1013.7mb 81f 82f
7:08am 9 13 mph 1013.6mb 81f 81f
6:08am 11 16 mph 1012.9mb 81f 81f
5:08am 11 18 mph 1012.8mb 81f 82f